createdAt,value
2017-07-22T00:01:28.651Z,6.17
2017-07-22T00:03:57.919Z,6.20
2017-07-22T00:06:27.163Z,6.10
2017-07-22T00:08:56.385Z,5.47
2017-07-22T00:11:25.648Z,6.83
2017-07-22T00:14:01.246Z,10.13
2017-07-22T00:16:30.463Z,6.60
2017-07-22T00:18:59.687Z,6.40
2017-07-22T00:21:28.935Z,6.17
2017-07-22T00:23:58.177Z,6.50
2017-07-22T00:26:27.441Z,7.30
2017-07-22T00:28:56.696Z,6.23
2017-07-22T00:31:26.518Z,5.90
2017-07-22T00:33:55.743Z,5.57
2017-07-22T00:36:25.031Z,6.30
2017-07-22T00:38:55.025Z,6.17
2017-07-22T00:41:24.235Z,6.50
2017-07-22T00:43:53.442Z,6.20
2017-07-22T00:46:23.450Z,7.07
2017-07-22T00:48:53.191Z,6.33
2017-07-22T00:51:22.437Z,5.70
2017-07-22T00:53:51.704Z,6.80
2017-07-22T00:56:21.001Z,6.87
2017-07-22T00:58:50.289Z,6.87
2017-07-22T01:01:19.520Z,6.40
2017-07-22T01:03:48.727Z,6.80
2017-07-22T01:06:18.540Z,7.60
2017-07-22T01:08:47.762Z,5.73
2017-07-22T01:11:17.757Z,4.13
2017-07-22T01:13:46.986Z,4.30
2017-07-22T01:16:16.208Z,4.23
2017-07-22T01:18:46.130Z,5.43
2017-07-22T01:21:15.387Z,4.10
2017-07-22T01:23:44.639Z,4.30
2017-07-22T01:26:13.915Z,4.50
2017-07-22T01:28:43.174Z,5.03
2017-07-22T01:31:12.404Z,5.80
2017-07-22T01:33:41.693Z,7.10
2017-07-22T01:36:11.747Z,7.10
2017-07-22T01:38:41.099Z,7.07
2017-07-22T01:41:10.366Z,8.37
2017-07-22T01:43:39.618Z,7.77
2017-07-22T01:46:08.869Z,8.43
2017-07-22T01:48:38.098Z,8.33
2017-07-22T01:51:08.826Z,9.37
2017-07-22T01:53:38.698Z,11.70
2017-07-22T01:56:08.478Z,8.70
2017-07-22T01:58:37.730Z,8.33
2017-07-22T02:01:07.153Z,8.27
2017-07-22T02:03:36.393Z,8.43
2017-07-22T02:06:05.658Z,8.60
2017-07-22T02:08:35.654Z,8.37
2017-07-22T02:11:04.897Z,8.13
2017-07-22T02:13:34.941Z,7.27
2017-07-22T02:16:04.178Z,7.80
2017-07-22T02:18:33.461Z,8.37
2017-07-22T02:21:02.710Z,7.77
2017-07-22T02:23:32.029Z,6.70
2017-07-22T02:26:01.298Z,7.30
2017-07-22T02:28:31.294Z,6.80
2017-07-22T02:31:01.198Z,6.53
2017-07-22T02:33:30.445Z,5.90
2017-07-22T02:35:59.658Z,8.30
2017-07-22T02:38:28.896Z,6.23
2017-07-22T02:40:58.139Z,5.90
2017-07-22T02:43:27.392Z,4.63
2017-07-22T02:45:57.358Z,4.70
2017-07-22T02:48:26.615Z,4.30
2017-07-22T02:50:55.913Z,7.00
2017-07-22T02:53:25.154Z,5.47
2017-07-22T02:55:54.401Z,7.20
2017-07-22T02:58:23.690Z,6.53
2017-07-22T03:00:52.949Z,5.20
2017-07-22T03:03:23.810Z,6.17
2017-07-22T03:05:53.138Z,4.40
2017-07-22T03:08:22.391Z,4.03
2017-07-22T03:10:51.644Z,4.13
2017-07-22T03:13:20.917Z,5.80
2017-07-22T03:15:50.123Z,7.33
2017-07-22T03:18:19.393Z,4.17
2017-07-22T03:20:49.246Z,4.87
2017-07-22T03:23:18.534Z,3.80
2017-07-22T03:25:47.792Z,4.70
2017-07-22T03:28:17.017Z,4.40
2017-07-22T03:30:46.343Z,4.10
2017-07-22T03:33:15.577Z,3.90
2017-07-22T03:35:45.458Z,3.93
2017-07-22T03:38:15.567Z,4.10
2017-07-22T03:40:44.805Z,4.00
2017-07-22T03:43:14.181Z,4.23
2017-07-22T03:45:43.402Z,4.50
2017-07-22T03:48:12.651Z,4.33
2017-07-22T03:50:41.921Z,4.43
2017-07-22T03:53:11.217Z,4.90
2017-07-22T03:55:40.471Z,5.60
2017-07-22T03:58:09.686Z,4.30
2017-07-22T04:00:38.913Z,4.63
2017-07-22T04:03:08.183Z,4.83
2017-07-22T04:05:38.219Z,5.30
2017-07-22T04:08:07.454Z,6.43
2017-07-22T04:10:37.491Z,7.00
2017-07-22T04:13:06.722Z,6.77
2017-07-22T04:15:36.851Z,5.33
2017-07-22T04:18:06.089Z,6.63
2017-07-22T04:20:35.374Z,4.87
2017-07-22T04:23:04.561Z,5.70
2017-07-22T04:25:33.842Z,5.57
2017-07-22T04:28:03.835Z,7.07
2017-07-22T04:30:33.067Z,5.20
2017-07-22T04:33:02.326Z,5.57
2017-07-22T04:35:31.567Z,5.30
2017-07-22T04:38:00.806Z,4.80
2017-07-22T04:40:30.033Z,6.00
2017-07-22T04:42:59.355Z,7.47
2017-07-22T04:45:29.398Z,5.50
2017-07-22T04:47:58.622Z,6.60
2017-07-22T04:50:27.867Z,5.53
2017-07-22T04:52:57.855Z,5.70
2017-07-22T04:55:27.097Z,6.00
2017-07-22T04:57:56.322Z,5.83
2017-07-22T05:00:25.589Z,5.30
2017-07-22T05:02:54.813Z,6.93
2017-07-22T05:05:24.065Z,5.13
2017-07-22T05:07:54.081Z,5.20
2017-07-22T05:10:24.148Z,7.27
2017-07-22T05:12:53.394Z,6.23
2017-07-22T05:15:22.597Z,5.70
2017-07-22T05:17:51.883Z,5.20
2017-07-22T05:20:21.126Z,5.70
2017-07-22T05:22:50.346Z,5.43
2017-07-22T05:25:19.566Z,5.20
2017-07-22T05:27:48.786Z,5.60
2017-07-22T05:30:18.062Z,5.33
2017-07-22T05:32:47.353Z,10.20
2017-07-22T05:35:16.574Z,5.40
2017-07-22T05:37:45.786Z,5.60
2017-07-22T05:40:14.997Z,6.43
2017-07-22T05:42:44.986Z,6.50
2017-07-22T05:45:14.273Z,7.20
2017-07-22T05:47:43.463Z,7.80
2017-07-22T05:50:12.710Z,7.00
2017-07-22T05:52:42.706Z,7.70
2017-07-22T05:55:11.939Z,6.77
2017-07-22T05:57:41.212Z,7.83
2017-07-22T06:00:10.452Z,7.10
2017-07-22T06:02:39.678Z,6.30
2017-07-22T06:05:09.406Z,7.37
2017-07-22T06:07:38.664Z,7.37
2017-07-22T06:10:07.966Z,9.03
2017-07-22T06:12:37.262Z,7.93
2017-07-22T06:15:06.474Z,7.47
2017-07-22T06:17:35.745Z,9.63
2017-07-22T06:20:04.968Z,8.87
2017-07-22T06:22:34.250Z,7.97
2017-07-22T06:25:03.492Z,8.17
2017-07-22T06:27:32.748Z,8.00
2017-07-22T06:30:01.988Z,7.50
2017-07-22T06:32:31.228Z,7.77
2017-07-22T06:35:01.519Z,8.20
2017-07-22T06:37:30.764Z,7.27
2017-07-22T06:40:00.073Z,9.27
2017-07-22T06:43:27.544Z,8.30
2017-07-22T06:45:56.764Z,8.87
2017-07-22T06:48:27.012Z,8.27
2017-07-22T06:50:56.306Z,8.57
2017-07-22T06:53:25.579Z,8.27
2017-07-22T06:55:54.851Z,8.30
2017-07-22T06:58:24.144Z,7.10
2017-07-22T07:00:53.731Z,7.90
2017-07-22T07:03:22.995Z,7.20
2017-07-22T07:05:52.262Z,8.63
2017-07-22T07:08:22.310Z,8.43
2017-07-22T07:10:52.113Z,7.80
2017-07-22T07:13:21.547Z,8.00
2017-07-22T07:15:51.267Z,7.43
2017-07-22T07:18:20.547Z,7.43
2017-07-22T07:20:49.783Z,9.63
2017-07-22T07:23:19.020Z,8.07
2017-07-22T07:25:48.267Z,8.37
2017-07-22T07:28:17.506Z,8.07
2017-07-22T07:30:46.766Z,7.50
2017-07-22T07:33:16.852Z,7.53
2017-07-22T07:35:46.894Z,6.50
2017-07-22T07:38:16.155Z,7.27
2017-07-22T07:40:45.932Z,7.00
2017-07-22T07:43:15.196Z,8.07
2017-07-22T07:45:44.468Z,7.00
2017-07-22T07:48:13.711Z,6.70
2017-07-22T07:50:43.024Z,6.70
2017-07-22T07:53:12.713Z,7.20
2017-07-22T07:55:41.964Z,7.83
2017-07-22T07:58:11.210Z,7.07
2017-07-22T08:00:40.470Z,7.63
2017-07-22T08:03:09.939Z,6.67
2017-07-22T08:05:39.353Z,7.63
2017-07-22T08:08:08.677Z,8.23
2017-07-22T08:10:37.915Z,8.70
2017-07-22T08:13:07.983Z,7.40
2017-07-22T08:15:37.237Z,8.17
2017-07-22T08:18:07.238Z,7.93
2017-07-22T08:20:37.442Z,7.23
2017-07-22T08:23:06.766Z,6.33
2017-07-22T08:25:36.815Z,6.80
2017-07-22T08:28:06.065Z,7.00
2017-07-22T08:30:35.351Z,7.53
2017-07-22T08:33:05.506Z,7.80
2017-07-22T08:35:34.749Z,9.50
2017-07-22T08:38:04.119Z,8.77
2017-07-22T08:40:33.354Z,8.00
2017-07-22T08:43:02.671Z,12.43
2017-07-22T08:45:32.729Z,9.27
2017-07-22T08:48:02.820Z,9.03
2017-07-22T08:50:32.060Z,6.90
2017-07-22T08:53:01.329Z,7.33
2017-07-22T08:55:30.695Z,7.40
2017-07-22T08:57:59.996Z,8.40
2017-07-22T09:00:29.268Z,7.73
2017-07-22T09:02:58.536Z,8.77
2017-07-22T09:05:27.807Z,8.20
2017-07-22T09:07:57.547Z,6.80
2017-07-22T09:10:27.642Z,7.30
2017-07-22T09:12:57.983Z,7.20
2017-07-22T09:15:27.935Z,7.67
2017-07-22T09:17:57.202Z,7.47
2017-07-22T09:20:27.215Z,8.47
2017-07-22T09:22:56.489Z,8.80
2017-07-22T09:25:25.719Z,7.73
2017-07-22T09:27:55.763Z,8.27
2017-07-22T09:30:25.096Z,7.70
2017-07-22T09:32:54.368Z,7.80
2017-07-22T09:35:23.766Z,9.03
2017-07-22T09:37:53.082Z,8.17
2017-07-22T09:40:22.541Z,7.53
2017-07-22T09:42:52.539Z,7.13
2017-07-22T09:45:22.182Z,9.80
2017-07-22T09:47:51.498Z,8.43
2017-07-22T09:50:20.782Z,8.13
2017-07-22T09:52:50.787Z,8.60
2017-07-22T09:55:20.800Z,8.37
2017-07-22T09:57:50.096Z,9.10
2017-07-22T10:00:19.349Z,7.57
2017-07-22T10:02:48.630Z,8.30
2017-07-22T10:05:19.164Z,8.00
2017-07-22T10:07:50.051Z,8.80
2017-07-22T10:10:19.234Z,6.53
2017-07-22T10:12:48.534Z,6.30
2017-07-22T10:15:17.827Z,6.60
2017-07-22T10:17:47.090Z,6.70
2017-07-22T10:20:16.314Z,6.37
2017-07-22T10:22:45.558Z,6.63
2017-07-22T10:25:15.091Z,6.10
2017-07-22T10:27:44.354Z,6.50
2017-07-22T10:30:13.599Z,5.80
2017-07-22T10:32:42.933Z,6.20
2017-07-22T10:35:13.430Z,5.80
2017-07-22T10:37:42.718Z,5.90
2017-07-22T10:40:12.002Z,6.40
2017-07-22T10:42:43.006Z,5.60
2017-07-22T10:45:13.195Z,5.47
2017-07-22T10:47:42.514Z,6.03
2017-07-22T10:50:12.210Z,6.10
2017-07-22T10:52:41.502Z,6.17
2017-07-22T10:55:10.792Z,6.53
2017-07-22T10:57:40.087Z,6.23
2017-07-22T11:00:09.349Z,6.37
2017-07-22T11:02:39.165Z,5.70
2017-07-22T11:05:08.473Z,6.90
2017-07-22T11:07:38.606Z,6.30
2017-07-22T11:10:07.879Z,5.97
2017-07-22T11:12:37.160Z,6.57
2017-07-22T11:15:06.898Z,6.33
2017-07-22T11:17:36.315Z,6.80
2017-07-22T11:20:05.700Z,6.10
2017-07-22T11:22:36.563Z,6.57
2017-07-22T11:25:05.932Z,5.63
2017-07-22T11:27:36.106Z,5.97
2017-07-22T11:30:05.463Z,6.20
2017-07-22T11:32:35.561Z,6.13
2017-07-22T11:35:04.915Z,6.47
2017-07-22T11:37:34.363Z,6.17
2017-07-22T11:40:03.673Z,6.83
2017-07-22T11:42:33.116Z,6.93
2017-07-22T11:45:02.731Z,5.93
2017-07-22T11:47:33.182Z,7.07
2017-07-22T11:50:02.554Z,6.10
2017-07-22T11:52:31.872Z,6.50
2017-07-22T11:55:01.195Z,6.50
2017-07-22T11:57:30.488Z,6.83
2017-07-22T12:00:00.633Z,5.93
2017-07-22T12:02:30.049Z,6.80
2017-07-22T12:04:59.399Z,6.37
2017-07-22T12:07:30.282Z,6.70
2017-07-22T12:09:59.663Z,7.03
2017-07-22T12:12:28.997Z,6.33
2017-07-22T12:14:59.133Z,6.60
2017-07-22T12:17:28.367Z,6.10
2017-07-22T12:19:57.650Z,5.70
2017-07-22T12:22:26.919Z,5.70
2017-07-22T12:24:56.232Z,6.13
2017-07-22T12:27:25.609Z,6.97
2017-07-22T12:29:54.839Z,6.33
2017-07-22T12:32:24.933Z,5.93
2017-07-22T12:34:54.227Z,5.43
2017-07-22T12:37:24.238Z,5.80
2017-07-22T12:39:53.518Z,5.60
2017-07-22T12:42:22.798Z,4.87
2017-07-22T12:44:52.052Z,5.20
2017-07-22T12:47:21.458Z,5.73
2017-07-22T12:49:50.991Z,5.63
2017-07-22T12:52:20.985Z,5.07
2017-07-22T12:54:50.799Z,5.33
2017-07-22T12:57:20.030Z,9.40
2017-07-22T12:59:49.690Z,6.10
2017-07-22T13:02:19.296Z,5.90
2017-07-22T13:04:50.618Z,6.33
2017-07-22T13:07:19.846Z,5.90
2017-07-22T13:09:49.123Z,5.53
2017-07-22T13:12:18.366Z,6.03
2017-07-22T13:14:47.915Z,5.90
2017-07-22T13:17:17.129Z,8.40
2017-07-22T13:19:46.395Z,6.10
2017-07-22T13:22:16.625Z,6.40
2017-07-22T13:24:46.784Z,6.50
2017-07-22T13:27:16.024Z,5.77
2017-07-22T13:29:45.283Z,6.30
2017-07-22T13:32:16.134Z,9.03
2017-07-22T13:34:46.139Z,6.30
2017-07-22T13:37:16.122Z,6.27
2017-07-22T13:39:45.366Z,6.33
2017-07-22T13:42:14.577Z,5.87
2017-07-22T13:44:44.244Z,6.80
2017-07-22T13:47:13.483Z,6.27
2017-07-22T13:49:42.747Z,5.33
2017-07-22T13:52:11.998Z,6.00
2017-07-22T13:54:41.826Z,6.00
2017-07-22T13:57:11.075Z,6.27
2017-07-22T13:59:40.314Z,6.33
2017-07-22T14:02:09.574Z,5.73
2017-07-22T14:04:39.555Z,6.30
2017-07-22T14:07:08.789Z,4.87
2017-07-22T14:09:38.792Z,5.57
2017-07-22T14:12:08.064Z,5.40
2017-07-22T14:14:37.301Z,6.30
2017-07-22T14:17:07.352Z,5.23
2017-07-22T14:19:36.626Z,6.23
2017-07-22T14:22:05.838Z,5.70
2017-07-22T14:24:36.109Z,6.20
2017-07-22T14:27:05.346Z,6.07
2017-07-22T14:29:34.854Z,5.33
2017-07-22T14:32:04.197Z,5.43
2017-07-22T14:34:33.554Z,5.30
2017-07-22T14:37:02.828Z,5.77
2017-07-22T14:39:32.074Z,6.00
2017-07-22T14:42:01.405Z,6.00
2017-07-22T14:44:30.763Z,5.37
2017-07-22T14:47:00.023Z,6.23
2017-07-22T14:51:46.760Z,7.73
2017-07-22T17:31:58.404Z,8.75
2017-07-22T17:34:29.072Z,11.88
2017-07-22T17:36:58.314Z,9.15
2017-07-22T17:39:27.566Z,10.33
2017-07-22T17:41:57.840Z,8.53
2017-07-22T17:44:27.315Z,7.57
2017-07-22T17:46:56.501Z,8.47
2017-07-22T17:49:25.751Z,8.10
2017-07-22T17:51:56.346Z,8.07
2017-07-22T17:54:25.595Z,8.30
2017-07-22T17:56:54.839Z,7.67
2017-07-22T17:59:24.241Z,7.30
2017-07-22T18:01:54.930Z,8.60
2017-07-22T18:04:24.150Z,8.47
2017-07-22T18:06:53.358Z,8.00
2017-07-22T18:09:22.552Z,6.40
2017-07-22T18:11:52.702Z,6.70
2017-07-22T18:14:21.961Z,7.50
2017-07-22T18:16:51.197Z,6.87
2017-07-22T18:19:20.402Z,7.10
2017-07-22T18:21:50.531Z,7.30
2017-07-22T18:24:19.805Z,7.10
2017-07-22T18:26:49.004Z,7.37
2017-07-22T18:29:19.266Z,6.83
2017-07-22T18:31:50.024Z,7.60
2017-07-22T18:34:20.267Z,7.00
2017-07-22T18:36:49.518Z,7.07
2017-07-22T18:39:18.801Z,8.10
2017-07-22T18:41:49.101Z,7.47
2017-07-22T18:44:18.335Z,7.07
2017-07-22T18:46:47.562Z,7.13
2017-07-22T18:49:17.635Z,7.27
2017-07-22T18:51:47.010Z,7.40
2017-07-22T18:54:16.496Z,8.10
2017-07-22T18:56:46.091Z,6.70
2017-07-22T18:59:17.206Z,7.10
2017-07-22T19:01:46.760Z,7.20
2017-07-22T19:04:16.447Z,8.23
2017-07-22T19:06:45.996Z,8.03
2017-07-22T19:09:17.742Z,7.83
2017-07-22T19:11:47.272Z,7.20
2017-07-22T19:14:16.850Z,7.93
2017-07-22T19:16:46.361Z,7.50
2017-07-22T19:19:17.199Z,7.93
2017-07-22T19:21:46.691Z,9.47
2017-07-22T19:24:16.201Z,7.47
2017-07-22T19:26:46.231Z,8.33
2017-07-22T19:29:17.166Z,8.57
2017-07-22T19:31:46.646Z,7.83
2017-07-22T19:34:16.270Z,8.73
2017-07-22T19:36:45.818Z,9.63
2017-07-22T19:39:17.246Z,7.60
2017-07-22T19:41:46.782Z,7.90
2017-07-22T19:44:17.168Z,9.10
2017-07-22T19:46:46.682Z,7.70
2017-07-22T19:49:18.058Z,7.60
2017-07-22T19:51:48.320Z,7.97
2017-07-22T19:54:17.902Z,7.30
2017-07-22T19:56:47.402Z,7.07
2017-07-22T19:59:18.538Z,8.37
2017-07-22T20:01:47.922Z,6.97
2017-07-22T20:04:17.379Z,7.30
2017-07-22T20:06:47.078Z,7.80
2017-07-22T20:09:17.903Z,7.23
2017-07-22T20:11:47.394Z,6.93
2017-07-22T20:14:17.102Z,6.83
2017-07-22T20:16:46.580Z,7.43
2017-07-22T20:19:17.141Z,7.27
2017-07-22T20:21:46.682Z,6.90
2017-07-22T20:24:16.231Z,7.67
2017-07-22T20:26:45.676Z,8.10
2017-07-22T20:29:15.239Z,6.77
2017-07-22T20:31:44.742Z,6.73
2017-07-22T20:34:14.001Z,7.00
2017-07-22T20:36:43.562Z,7.23
2017-07-22T20:39:13.123Z,7.30
2017-07-22T20:41:42.368Z,7.60
2017-07-22T20:44:12.334Z,6.90
2017-07-22T20:46:41.527Z,7.83
2017-07-22T20:49:11.935Z,6.87
2017-07-22T20:51:41.170Z,6.73
2017-07-22T20:54:10.391Z,6.50
2017-07-22T20:56:39.865Z,7.40
2017-07-22T20:59:09.142Z,6.60
2017-07-22T21:01:38.358Z,6.47
2017-07-22T21:04:07.934Z,6.53
2017-07-22T21:06:37.459Z,6.80
2017-07-22T21:09:07.013Z,6.40
2017-07-22T21:11:37.497Z,6.10
2017-07-22T21:14:06.826Z,6.67
2017-07-22T21:16:36.365Z,6.80
2017-07-22T21:19:05.823Z,6.60
2017-07-22T21:21:35.845Z,6.70
2017-07-22T21:24:05.086Z,8.30
2017-07-22T21:26:34.299Z,11.20
2017-07-22T21:29:03.543Z,6.70
2017-07-22T21:31:32.768Z,7.43
2017-07-22T21:34:02.355Z,7.20
2017-07-22T21:36:31.582Z,7.43
2017-07-22T21:39:00.851Z,7.17
2017-07-22T21:41:30.058Z,8.33
2017-07-22T21:43:59.290Z,7.60
2017-07-22T21:46:30.158Z,7.50
2017-07-22T21:48:59.402Z,7.57
2017-07-22T21:51:28.677Z,6.90
2017-07-22T21:53:57.942Z,8.57
2017-07-22T21:56:27.147Z,9.23
2017-07-22T21:58:56.950Z,9.10
2017-07-22T22:01:27.209Z,6.53
2017-07-22T22:03:56.401Z,5.77
2017-07-22T22:06:25.610Z,4.53
2017-07-22T22:08:55.914Z,3.20
2017-07-22T22:11:25.166Z,3.37
2017-07-22T22:13:54.370Z,3.77
2017-07-22T22:16:23.570Z,4.30
2017-07-22T22:18:52.794Z,4.80
2017-07-22T22:21:22.022Z,2.90
2017-07-22T22:23:51.222Z,4.00
2017-07-22T22:26:20.490Z,2.97
2017-07-22T22:28:49.733Z,3.13
2017-07-22T22:31:18.978Z,2.87
2017-07-22T22:33:48.247Z,2.63
2017-07-22T22:36:17.510Z,4.63
2017-07-22T22:38:46.742Z,2.70
2017-07-22T22:41:16.965Z,2.77
2017-07-22T22:43:46.214Z,2.93
2017-07-22T22:46:15.433Z,2.67
2017-07-22T22:48:44.662Z,2.97
2017-07-22T22:51:13.865Z,2.80
2017-07-22T22:53:43.115Z,3.00
2017-07-22T22:56:13.401Z,3.10
2017-07-22T22:58:42.623Z,2.43
2017-07-22T23:01:11.819Z,2.60
2017-07-22T23:03:41.021Z,2.93
2017-07-22T23:06:10.227Z,2.73
2017-07-22T23:08:39.722Z,3.10
2017-07-22T23:11:08.930Z,3.00
2017-07-22T23:13:38.150Z,2.60
2017-07-22T23:16:07.326Z,2.83
2017-07-22T23:18:36.557Z,2.87
2017-07-22T23:21:05.778Z,2.40
2017-07-22T23:23:35.970Z,3.20
2017-07-22T23:26:05.154Z,2.60
2017-07-22T23:28:34.354Z,2.97
2017-07-22T23:31:03.549Z,4.00
2017-07-22T23:33:32.787Z,3.07
2017-07-22T23:36:02.746Z,3.00
2017-07-22T23:38:31.941Z,2.77
2017-07-22T23:41:01.118Z,2.83
2017-07-22T23:43:30.830Z,2.90
2017-07-22T23:46:00.114Z,3.13
2017-07-22T23:48:29.358Z,2.90
2017-07-22T23:50:58.577Z,2.73
2017-07-22T23:53:27.802Z,2.93
2017-07-22T23:55:57.043Z,2.70
2017-07-22T23:58:26.234Z,2.90
